createdAt,value
2022-12-17T00:01:06.985Z,101305.06
2022-12-17T00:03:53.036Z,101308.16
2022-12-17T00:06:45.408Z,101307.28
2022-12-17T00:09:32.795Z,101302.38
2022-12-17T00:12:18.098Z,101302.38
2022-12-17T00:15:03.388Z,101304.16
2022-12-17T00:17:52.047Z,101305.94
2022-12-17T00:20:37.748Z,101311.84
2022-12-17T00:23:27.304Z,101315.28
2022-12-17T00:26:15.026Z,101318.19
2022-12-17T00:29:00.442Z,101314.41
2022-12-17T00:31:48.461Z,101317.69
2022-12-17T00:34:34.212Z,101321.97
2022-12-17T00:37:19.668Z,101320.81
2022-12-17T00:40:05.697Z,101327.59
2022-12-17T00:42:50.661Z,101326.59
2022-12-17T00:45:36.114Z,101336.44
2022-12-17T00:48:21.570Z,101332.59
2022-12-17T00:51:07.436Z,101326.69
2022-12-17T00:53:52.782Z,101333.13
2022-12-17T00:56:37.981Z,101334.28
2022-12-17T00:59:24.175Z,101330.44
2022-12-17T01:02:09.344Z,101340.25
2022-12-17T01:04:55.300Z,101341.25
2022-12-17T01:07:42.497Z,101341.41
2022-12-17T01:10:28.434Z,101350.69
2022-12-17T01:13:13.687Z,101355.25
2022-12-17T01:15:58.956Z,101365.75
2022-12-17T01:18:44.334Z,101367.03
2022-12-17T01:21:29.932Z,101368.84
2022-12-17T01:24:14.778Z,101373.66
2022-12-17T01:27:00.177Z,101369.41
2022-12-17T01:29:45.108Z,101378.47
2022-12-17T01:32:30.552Z,101384.91
2022-12-17T01:35:15.670Z,101380.31
2022-12-17T01:38:00.749Z,101382.34
2022-12-17T01:40:46.158Z,101387.97
2022-12-17T01:43:31.417Z,101389.06
2022-12-17T01:46:17.431Z,101384.31
2022-12-17T01:49:06.156Z,101395.25
2022-12-17T01:51:52.825Z,101401.41
2022-12-17T01:54:38.517Z,101401.00
2022-12-17T01:57:25.968Z,101406.53
2022-12-17T02:00:22.913Z,101407.81
2022-12-17T02:03:08.041Z,101416.16
2022-12-17T02:06:07.865Z,101417.16
2022-12-17T02:09:04.357Z,101416.09
2022-12-17T02:12:10.714Z,101419.38
2022-12-17T02:15:04.396Z,101420.72
2022-12-17T02:17:58.838Z,101417.38
2022-12-17T02:20:53.305Z,101428.56
2022-12-17T02:24:13.288Z,101429.78
2022-12-17T02:27:02.888Z,101426.34
2022-12-17T02:29:52.440Z,101428.97
2022-12-17T02:32:38.969Z,101438.69
2022-12-17T02:35:31.906Z,101439.91
2022-12-17T02:38:17.222Z,101437.97
2022-12-17T02:41:06.260Z,101431.47
2022-12-17T02:43:53.830Z,101442.94
2022-12-17T02:46:40.156Z,101447.22
2022-12-17T02:49:25.283Z,101445.28
2022-12-17T02:52:13.260Z,101452.72
2022-12-17T02:54:58.590Z,101457.41
2022-12-17T02:57:45.768Z,101459.34
2022-12-17T03:00:33.288Z,101458.09
2022-12-17T03:03:18.707Z,101460.84
2022-12-17T03:06:03.898Z,101464.72
2022-12-17T03:08:49.193Z,101461.84
2022-12-17T03:11:35.878Z,101463.50
2022-12-17T03:14:21.126Z,101469.03
2022-12-17T03:17:06.426Z,101474.13
2022-12-17T03:19:51.533Z,101475.94
2022-12-17T03:22:36.947Z,101478.44
2022-12-17T03:25:22.117Z,101472.94
2022-12-17T03:28:07.231Z,101466.72
2022-12-17T03:30:52.428Z,101459.69
2022-12-17T03:33:37.972Z,101471.56
2022-12-17T03:36:23.616Z,101477.63
2022-12-17T03:39:08.766Z,101473.22
2022-12-17T03:41:53.918Z,101480.94
2022-12-17T03:44:39.158Z,101481.06
2022-12-17T03:47:24.590Z,101479.69
2022-12-17T03:50:09.944Z,101482.88
2022-12-17T03:52:55.191Z,101484.38
2022-12-17T03:55:40.519Z,101486.88
2022-12-17T03:58:25.574Z,101489.50
2022-12-17T04:01:10.597Z,101492.81
2022-12-17T04:03:55.981Z,101496.94
2022-12-17T04:06:41.095Z,101499.44
2022-12-17T04:09:26.152Z,101495.56
2022-12-17T04:12:11.756Z,101506.59
2022-12-17T04:14:57.245Z,101515.81
2022-12-17T04:17:42.369Z,101514.88
2022-12-17T04:20:28.143Z,101519.28
2022-12-17T04:23:13.123Z,101511.41
2022-12-17T04:25:58.287Z,101511.81
2022-12-17T04:28:43.580Z,101508.50
2022-12-17T04:31:28.846Z,101510.69
2022-12-17T04:34:14.285Z,101521.19
2022-12-17T04:36:59.377Z,101520.34
2022-12-17T04:39:44.499Z,101528.06
2022-12-17T04:42:29.548Z,101530.53
2022-12-17T04:45:14.468Z,101540.66
2022-12-17T04:47:59.600Z,101542.97
2022-12-17T04:50:44.697Z,101541.75
2022-12-17T04:53:29.921Z,101543.44
2022-12-17T04:56:14.952Z,101543.56
2022-12-17T04:59:00.191Z,101546.44
2022-12-17T05:01:45.475Z,101550.03
2022-12-17T05:04:30.769Z,101542.16
2022-12-17T05:07:15.981Z,101548.81
2022-12-17T05:10:01.109Z,101551.31
2022-12-17T05:12:46.331Z,101541.69
2022-12-17T05:15:31.538Z,101540.75
2022-12-17T05:18:27.200Z,101556.00
2022-12-17T05:21:12.335Z,101561.03
2022-12-17T05:23:57.568Z,101565.38
2022-12-17T05:26:45.837Z,101568.53
2022-12-17T05:29:31.747Z,101577.25
2022-12-17T05:32:17.525Z,101578.41
2022-12-17T05:35:02.870Z,101579.69
2022-12-17T05:37:48.177Z,101582.75
2022-12-17T05:40:33.486Z,101579.47
2022-12-17T05:43:20.930Z,101583.63
2022-12-17T05:46:06.641Z,101585.28
2022-12-17T05:48:53.616Z,101590.50
2022-12-17T05:51:39.756Z,101600.69
2022-12-17T05:54:26.181Z,101603.06
2022-12-17T05:57:11.468Z,101606.81
2022-12-17T05:59:56.621Z,101604.75
2022-12-17T06:02:42.564Z,101607.69
2022-12-17T06:05:28.294Z,101602.19
2022-12-17T06:08:24.530Z,101619.81
2022-12-17T06:11:09.764Z,101615.19
2022-12-17T06:13:55.347Z,101625.22
2022-12-17T06:16:40.922Z,101624.28
2022-12-17T06:19:26.242Z,101635.09
2022-12-17T06:22:11.363Z,101643.56
2022-12-17T06:24:56.530Z,101645.09
2022-12-17T06:27:42.038Z,101649.47
2022-12-17T06:30:27.866Z,101661.50
2022-12-17T06:33:25.728Z,101648.22
2022-12-17T06:36:18.100Z,101658.25
2022-12-17T06:39:06.734Z,101660.75
2022-12-17T06:41:52.020Z,101662.91
2022-12-17T06:44:37.947Z,101663.59
2022-12-17T06:47:23.160Z,101672.06
2022-12-17T06:50:08.370Z,101667.13
2022-12-17T06:52:53.535Z,101682.50
2022-12-17T06:55:38.459Z,101675.34
2022-12-17T06:58:23.547Z,101681.09
2022-12-17T07:01:09.821Z,101687.16
2022-12-17T07:03:55.138Z,101694.16
2022-12-17T07:06:40.777Z,101697.91
2022-12-17T07:09:26.089Z,101697.69
2022-12-17T07:12:11.384Z,101701.19
2022-12-17T07:14:56.748Z,101713.59
2022-12-17T07:17:42.069Z,101714.09
2022-12-17T07:20:27.985Z,101716.00
2022-12-17T07:23:16.494Z,101726.38
2022-12-17T07:26:01.851Z,101727.47
2022-12-17T07:28:46.989Z,101730.09
2022-12-17T07:31:45.938Z,101747.13
2022-12-17T07:34:31.104Z,101742.19
2022-12-17T07:37:20.429Z,101748.56
2022-12-17T07:40:07.573Z,101748.50
2022-12-17T07:42:53.014Z,101750.53
2022-12-17T07:45:38.315Z,101750.22
2022-12-17T07:48:24.043Z,101754.50
2022-12-17T07:51:09.654Z,101757.09
2022-12-17T07:53:54.995Z,101755.47
2022-12-17T07:56:42.867Z,101771.47
2022-12-17T07:59:28.412Z,101767.66
2022-12-17T08:02:13.902Z,101766.28
2022-12-17T08:05:12.893Z,101773.00
2022-12-17T08:07:58.356Z,101777.03
2022-12-17T08:10:43.646Z,101775.94
2022-12-17T08:13:29.016Z,101785.09
2022-12-17T08:16:14.061Z,101787.31
2022-12-17T08:18:59.438Z,101795.34
2022-12-17T08:21:44.582Z,101795.53
2022-12-17T08:24:29.771Z,101790.91
2022-12-17T08:27:14.995Z,101797.00
2022-12-17T08:30:00.804Z,101798.50
2022-12-17T08:32:46.286Z,101807.47
2022-12-17T08:35:31.479Z,101813.59
2022-12-17T08:38:21.296Z,101813.06
2022-12-17T08:41:06.939Z,101821.63
2022-12-17T08:43:52.248Z,101828.81
2022-12-17T08:46:38.129Z,101821.03
2022-12-17T08:49:23.487Z,101828.75
2022-12-17T08:52:08.804Z,101827.91
2022-12-17T08:54:54.273Z,101830.72
2022-12-17T08:57:39.495Z,101836.63
2022-12-17T09:00:25.314Z,101836.44
2022-12-17T09:03:15.849Z,101844.31
2022-12-17T09:06:01.849Z,101847.03
2022-12-17T09:08:50.318Z,101847.09
2022-12-17T09:11:36.276Z,101849.59
2022-12-17T09:14:22.008Z,101846.91
2022-12-17T09:17:07.700Z,101856.34
2022-12-17T09:19:53.432Z,101860.97
2022-12-17T09:22:38.665Z,101859.63
2022-12-17T09:25:24.447Z,101863.81
2022-12-17T09:28:09.888Z,101861.63
2022-12-17T09:30:55.138Z,101859.25
2022-12-17T09:33:40.680Z,101858.75
2022-12-17T09:36:26.574Z,101862.88
2022-12-17T09:39:12.270Z,101861.78
2022-12-17T09:42:06.601Z,101867.00
2022-12-17T09:45:06.191Z,101869.22
2022-12-17T09:48:10.460Z,101870.88
2022-12-17T09:50:55.852Z,101872.03
2022-12-17T09:54:05.515Z,101873.28
2022-12-17T09:56:51.379Z,101868.75
2022-12-17T09:59:47.425Z,101877.47
2022-12-17T10:02:43.982Z,101875.81
2022-12-17T10:05:39.599Z,101869.56
2022-12-17T10:08:32.516Z,101867.25
2022-12-17T10:11:34.391Z,101871.38
2022-12-17T10:14:22.039Z,101869.72
2022-12-17T10:17:11.855Z,101864.16
2022-12-17T10:20:01.387Z,101870.22
2022-12-17T10:22:47.016Z,101870.59
2022-12-17T10:25:37.543Z,101876.56
2022-12-17T10:28:40.242Z,101870.66
2022-12-17T10:31:33.553Z,101865.00
2022-12-17T10:34:24.751Z,101865.53
2022-12-17T10:37:16.259Z,101866.09
2022-12-17T10:40:01.770Z,101868.09
2022-12-17T10:42:49.727Z,101869.34
2022-12-17T10:45:49.820Z,101876.84
2022-12-17T10:48:50.259Z,101880.75
2022-12-17T10:51:43.676Z,101881.44
2022-12-17T10:54:49.565Z,101884.28
2022-12-17T10:57:56.108Z,101892.88
2022-12-17T11:00:50.176Z,101895.00
2022-12-17T11:04:05.576Z,101894.28
2022-12-17T11:06:59.342Z,101894.97
2022-12-17T11:10:08.584Z,101890.97
2022-12-17T11:13:03.134Z,101886.28
2022-12-17T11:15:54.161Z,101895.53
2022-12-17T11:18:45.972Z,101902.44
2022-12-17T11:21:40.030Z,101890.66
2022-12-17T11:24:31.733Z,101892.13
2022-12-17T11:27:18.130Z,101896.47
2022-12-17T11:30:03.575Z,101907.44
2022-12-17T11:32:48.611Z,101911.03
2022-12-17T11:35:47.123Z,101905.97
2022-12-17T11:38:48.833Z,101907.34
2022-12-17T11:41:44.664Z,101905.03
2022-12-17T11:44:55.781Z,101912.75
2022-12-17T11:48:02.902Z,101907.13
2022-12-17T11:51:03.382Z,101901.50
2022-12-17T11:54:21.533Z,101909.97
2022-12-17T11:57:31.487Z,101910.03
2022-12-17T12:00:25.046Z,101904.50
2022-12-17T12:03:41.611Z,101905.59
2022-12-17T12:06:51.911Z,101905.78
2022-12-17T12:10:02.283Z,101908.09
2022-12-17T12:13:29.471Z,101913.59
2022-12-17T12:16:17.569Z,101905.09
2022-12-17T12:19:23.238Z,101899.81
2022-12-17T12:22:19.495Z,101910.28
2022-12-17T12:25:35.751Z,101905.47
2022-12-17T12:28:36.744Z,101907.47
2022-12-17T12:31:40.872Z,101900.69
2022-12-17T12:34:53.751Z,101899.34
2022-12-17T12:37:39.321Z,101900.69
2022-12-17T12:40:33.921Z,101899.25
2022-12-17T12:43:31.475Z,101889.25
2022-12-17T12:46:23.592Z,101898.03
2022-12-17T12:49:27.432Z,101900.84
2022-12-17T12:52:15.260Z,101907.41
2022-12-17T12:55:03.561Z,101904.56
2022-12-17T12:57:53.835Z,101897.88
2022-12-17T13:00:53.023Z,101897.63
2022-12-17T13:03:54.599Z,101899.88
2022-12-17T13:06:43.216Z,101893.22
2022-12-17T13:09:15.932Z,101890.28
2022-12-17T13:11:53.725Z,101887.88
2022-12-17T13:14:26.291Z,101884.31
2022-12-17T13:17:16.430Z,101874.94
2022-12-17T13:20:00.694Z,101885.50
2022-12-17T13:22:28.880Z,101889.91
2022-12-17T13:25:16.252Z,101895.31
2022-12-17T13:27:43.331Z,101897.25
2022-12-17T13:30:18.756Z,101888.53
2022-12-17T13:33:05.586Z,101891.59
2022-12-17T13:35:53.695Z,101881.63
2022-12-17T13:38:39.525Z,101885.78
2022-12-17T13:41:14.582Z,101889.66
2022-12-17T13:43:44.829Z,101893.22
2022-12-17T13:46:23.415Z,101886.88
2022-12-17T13:49:01.934Z,101885.47
2022-12-17T13:51:31.161Z,101893.50
2022-12-17T13:54:03.743Z,101888.09
2022-12-17T13:56:36.878Z,101891.56
2022-12-17T13:59:09.157Z,101896.41
2022-12-17T14:01:46.518Z,101899.59
2022-12-17T14:04:30.160Z,101902.91
2022-12-17T14:07:00.887Z,101900.34
2022-12-17T14:09:38.810Z,101897.16
2022-12-17T14:12:25.418Z,101901.88
2022-12-17T14:15:05.034Z,101902.88
2022-12-17T14:17:44.108Z,101893.53
2022-12-17T14:20:17.121Z,101901.94
2022-12-17T14:22:51.406Z,101904.97
2022-12-17T14:25:30.425Z,101903.19
2022-12-17T14:27:58.781Z,101901.25
2022-12-17T14:31:24.220Z,101913.94
2022-12-17T14:33:34.771Z,101904.81
2022-12-17T14:36:07.272Z,101913.25
2022-12-17T14:38:48.503Z,101917.09
2022-12-17T14:41:33.969Z,101919.59
2022-12-17T14:44:02.593Z,101923.94
2022-12-17T14:46:30.570Z,101929.97
2022-12-17T14:49:02.269Z,101927.97
2022-12-17T14:51:41.030Z,101943.25
2022-12-17T14:54:13.807Z,101940.72
2022-12-17T14:56:47.005Z,101941.78
2022-12-17T14:59:36.633Z,101943.75
2022-12-17T15:02:05.689Z,101940.66
2022-12-17T15:04:33.468Z,101937.91
2022-12-17T15:07:03.801Z,101941.56
2022-12-17T15:09:30.577Z,101937.41
2022-12-17T15:11:57.505Z,101947.69
2022-12-17T15:14:24.421Z,101935.84
2022-12-17T15:16:51.180Z,101946.19
2022-12-17T15:19:18.107Z,101945.56
2022-12-17T15:21:45.008Z,101951.97
2022-12-17T15:24:13.491Z,101959.84
2022-12-17T15:26:40.735Z,101956.50
2022-12-17T15:29:07.699Z,101966.78
2022-12-17T15:31:35.801Z,101964.06
2022-12-17T15:34:02.834Z,101965.28
2022-12-17T15:36:31.921Z,101973.44
2022-12-17T15:38:59.121Z,101972.91
2022-12-17T15:41:44.617Z,101978.84
2022-12-17T15:44:11.945Z,101972.88
2022-12-17T15:46:39.772Z,101966.16
2022-12-17T15:49:06.617Z,101971.47
2022-12-17T15:51:33.508Z,101975.44
2022-12-17T15:54:00.275Z,101979.06
2022-12-17T15:56:28.398Z,101968.16
2022-12-17T15:58:59.120Z,101971.03
2022-12-17T16:01:25.927Z,101969.44
2022-12-17T16:03:54.098Z,101964.34
2022-12-17T16:06:21.288Z,101972.03
2022-12-17T16:08:47.886Z,101958.06
2022-12-17T16:11:16.177Z,101962.53
2022-12-17T16:13:43.321Z,101958.44
2022-12-17T16:16:10.295Z,101965.03
2022-12-17T16:18:38.724Z,101955.44
2022-12-17T16:21:08.347Z,101959.28
2022-12-17T16:23:36.175Z,101971.41
2022-12-17T16:26:05.505Z,101970.63
2022-12-17T16:28:32.626Z,101975.44
2022-12-17T16:31:08.701Z,101973.91
2022-12-17T16:33:37.651Z,101975.13
2022-12-17T16:36:05.722Z,101975.50
2022-12-17T16:38:36.136Z,101972.88
2022-12-17T16:41:03.646Z,101974.59
2022-12-17T16:43:34.142Z,101984.13
2022-12-17T16:46:01.784Z,101987.81
2022-12-17T16:48:28.574Z,101979.50
2022-12-17T16:50:55.529Z,101987.16
2022-12-17T16:53:22.246Z,101988.22
2022-12-17T16:55:49.896Z,101992.63
2022-12-17T16:58:17.938Z,101988.47
2022-12-17T17:00:46.443Z,101991.69
2022-12-17T17:03:13.749Z,101998.13
2022-12-17T17:05:41.272Z,102003.34
2022-12-17T17:08:08.106Z,102002.41
2022-12-17T17:10:37.915Z,101999.44
2022-12-17T17:13:04.850Z,102001.66
2022-12-17T17:15:31.908Z,102005.84
2022-12-17T17:18:01.851Z,102011.78
2022-12-17T17:20:32.537Z,102018.09
2022-12-17T17:22:59.620Z,102021.44
2022-12-17T17:25:43.821Z,102013.44
2022-12-17T17:28:13.611Z,102023.56
2022-12-17T17:30:40.274Z,102014.78
2022-12-17T17:33:08.751Z,102014.28
2022-12-17T17:35:35.560Z,102021.41
2022-12-17T17:38:02.233Z,102022.75
2022-12-17T17:40:29.008Z,102019.97
2022-12-17T17:42:55.818Z,102020.34
2022-12-17T17:45:22.565Z,102023.81
2022-12-17T17:47:49.425Z,102029.50
2022-12-17T17:50:16.397Z,102034.75
2022-12-17T17:52:43.120Z,102040.00
2022-12-17T17:55:10.119Z,102044.84
2022-12-17T17:57:36.808Z,102044.25
2022-12-17T18:00:05.501Z,102045.22
2022-12-17T18:02:32.348Z,102054.59
2022-12-17T18:04:59.369Z,102043.53
2022-12-17T18:07:27.332Z,102054.69
2022-12-17T18:09:55.224Z,102055.16
2022-12-17T18:12:40.443Z,102052.09
2022-12-17T18:15:16.984Z,102049.38
2022-12-17T18:17:46.389Z,102056.59
2022-12-17T18:20:13.781Z,102060.38
2022-12-17T18:22:40.616Z,102063.91
2022-12-17T18:25:07.729Z,102069.16
2022-12-17T18:27:34.407Z,102063.75
2022-12-17T18:30:01.036Z,102065.56
2022-12-17T18:32:27.830Z,102063.59
2022-12-17T18:34:54.758Z,102061.31
2022-12-17T18:37:21.552Z,102059.88
2022-12-17T18:39:49.029Z,102054.97
2022-12-17T18:42:34.808Z,102059.84
2022-12-17T18:45:01.883Z,102056.25
2022-12-17T18:47:28.887Z,102050.34
2022-12-17T18:49:55.549Z,102058.22
2022-12-17T18:52:24.542Z,102051.47
2022-12-17T18:54:51.212Z,102058.78
2022-12-17T18:57:17.904Z,102059.16
2022-12-17T18:59:44.527Z,102067.72
2022-12-17T19:02:13.909Z,102066.19
2022-12-17T19:04:41.844Z,102067.78
2022-12-17T19:07:08.619Z,102067.78
2022-12-17T19:09:36.111Z,102074.13
2022-12-17T19:12:08.336Z,102072.94
2022-12-17T19:14:36.563Z,102074.38
2022-12-17T19:17:05.140Z,102071.19
2022-12-17T19:19:32.755Z,102064.19
2022-12-17T19:22:00.222Z,102066.09
2022-12-17T19:24:27.441Z,102075.34
2022-12-17T19:26:54.839Z,102070.84
2022-12-17T19:29:21.967Z,102073.25
2022-12-17T19:31:49.138Z,102078.50
2022-12-17T19:34:18.900Z,102076.34
2022-12-17T19:36:46.505Z,102077.16
2022-12-17T19:39:19.225Z,102081.78
2022-12-17T19:41:46.590Z,102082.03
2022-12-17T19:44:20.030Z,102082.75
2022-12-17T19:46:49.098Z,102071.38
2022-12-17T19:49:17.504Z,102075.06
2022-12-17T19:51:45.147Z,102073.50
2022-12-17T19:54:14.780Z,102075.19
2022-12-17T19:56:42.869Z,102071.88
2022-12-17T19:59:11.704Z,102067.22
2022-12-17T20:01:45.188Z,102066.38
2022-12-17T20:04:13.518Z,102060.84
2022-12-17T20:06:41.655Z,102068.31
2022-12-17T20:09:08.477Z,102058.31
2022-12-17T20:11:36.348Z,102071.94
2022-12-17T20:14:09.375Z,102080.25
2022-12-17T20:16:39.121Z,102079.97
2022-12-17T20:19:12.930Z,102067.78
2022-12-17T20:21:40.244Z,102071.38
2022-12-17T20:24:07.679Z,102080.34
2022-12-17T20:26:37.100Z,102079.81
2022-12-17T20:29:05.458Z,102088.88
2022-12-17T20:31:32.920Z,102086.28
2022-12-17T20:34:06.944Z,102093.41
2022-12-17T20:36:34.128Z,102086.56
2022-12-17T20:39:02.664Z,102088.56
2022-12-17T20:41:30.753Z,102090.84
2022-12-17T20:43:58.221Z,102092.75
2022-12-17T20:46:25.569Z,102099.16
2022-12-17T20:48:52.701Z,102094.97
2022-12-17T20:51:28.575Z,102081.47
2022-12-17T20:53:57.052Z,102074.44
2022-12-17T20:56:29.997Z,102083.13
2022-12-17T20:59:00.151Z,102080.16
2022-12-17T21:01:30.056Z,102084.19
2022-12-17T21:03:58.298Z,102097.00
2022-12-17T21:06:28.095Z,102103.16
2022-12-17T21:08:56.259Z,102101.53
2022-12-17T21:11:25.704Z,102098.09
2022-12-17T21:13:53.278Z,102107.88
2022-12-17T21:16:29.625Z,102120.00
2022-12-17T21:18:58.378Z,102124.88
2022-12-17T21:21:30.085Z,102124.44
2022-12-17T21:23:57.848Z,102117.03
2022-12-17T21:26:32.905Z,102106.28
2022-12-17T21:29:01.591Z,102100.00
2022-12-17T21:31:30.055Z,102097.31
2022-12-17T21:33:59.401Z,102089.13
2022-12-17T21:36:28.486Z,102100.22
2022-12-17T21:38:55.196Z,102105.59
2022-12-17T21:41:25.727Z,102114.91
2022-12-17T21:44:05.124Z,102109.38
2022-12-17T21:46:33.144Z,102112.75
2022-12-17T21:49:01.309Z,102111.25
2022-12-17T21:51:29.508Z,102108.47
2022-12-17T21:53:58.677Z,102106.81
2022-12-17T21:56:26.235Z,102120.91
2022-12-17T21:59:00.845Z,102121.88
2022-12-17T22:01:31.685Z,102118.91
2022-12-17T22:04:00.215Z,102107.47
2022-12-17T22:06:32.001Z,102105.81
2022-12-17T22:09:15.277Z,102111.06
2022-12-17T22:12:11.638Z,102113.53
2022-12-17T22:14:38.513Z,102114.34
2022-12-17T22:17:06.571Z,102107.59
2022-12-17T22:19:33.900Z,102100.72
2022-12-17T22:22:00.755Z,102103.47
2022-12-17T22:24:27.891Z,102111.47
2022-12-17T22:27:00.944Z,102118.34
2022-12-17T22:29:46.674Z,102118.50
2022-12-17T22:32:32.585Z,102111.13
2022-12-17T22:35:30.331Z,102111.25
2022-12-17T22:40:40.873Z,102104.47
2022-12-17T22:44:31.563Z,102104.69
2022-12-17T22:44:42.465Z,102109.72
2022-12-17T22:46:17.155Z,102111.81
2022-12-17T22:48:44.264Z,102116.72
2022-12-17T22:51:16.921Z,102121.59
2022-12-17T22:53:47.242Z,102122.09
2022-12-17T22:56:25.607Z,102120.19
2022-12-17T22:59:00.891Z,102124.94
2022-12-17T23:01:28.033Z,102117.09
2022-12-17T23:03:59.960Z,102119.69
2022-12-17T23:06:27.551Z,102118.88
2022-12-17T23:08:54.674Z,102113.28
2022-12-17T23:11:27.399Z,102119.66
2022-12-17T23:13:55.556Z,102118.38
2022-12-17T23:16:22.746Z,102110.50
2022-12-17T23:18:51.596Z,102119.00
2022-12-17T23:21:21.984Z,102123.59
2022-12-17T23:23:48.835Z,102121.81
2022-12-17T23:26:22.162Z,102130.16
2022-12-17T23:28:52.531Z,102123.47
2022-12-17T23:31:21.359Z,102122.81
2022-12-17T23:33:48.476Z,102126.00
2022-12-17T23:36:21.356Z,102136.47
2022-12-17T23:38:49.403Z,102122.78
2022-12-17T23:41:21.970Z,102130.16
2022-12-17T23:43:50.026Z,102122.75
2022-12-17T23:46:18.313Z,102130.81
2022-12-17T23:48:46.629Z,102126.47
2022-12-17T23:51:14.853Z,102128.09
2022-12-17T23:53:43.204Z,102132.09
2022-12-17T23:56:20.589Z,102130.22
2022-12-17T23:58:48.269Z,102140.19
